sensor_id;sensor_type;location;lat;lon;timestamp;P1;durP1;ratioP1;P2;durP2;ratioP2
16033;SDS011;8121;51.418;6.998;2022-10-16T00:04:55;1.03;;;0.60;;
16033;SDS011;8121;51.418;6.998;2022-10-16T00:14:59;1.20;;;1.10;;
16033;SDS011;8121;51.418;6.998;2022-10-16T00:25:02;3.53;;;1.00;;
16033;SDS011;8121;51.418;6.998;2022-10-16T00:35:07;1.17;;;1.07;;
16033;SDS011;8121;51.418;6.998;2022-10-16T00:45:09;2.00;;;0.83;;
16033;SDS011;8121;51.418;6.998;2022-10-16T00:55:12;2.90;;;0.70;;
16033;SDS011;8121;51.418;6.998;2022-10-16T01:05:14;3.40;;;0.80;;
16033;SDS011;8121;51.418;6.998;2022-10-16T01:15:20;1.00;;;1.00;;
16033;SDS011;8121;51.418;6.998;2022-10-16T01:25:29;1.43;;;0.80;;
16033;SDS011;8121;51.418;6.998;2022-10-16T01:35:41;0.70;;;0.60;;
16033;SDS011;8121;51.418;6.998;2022-10-16T01:45:44;0.70;;;0.60;;
16033;SDS011;8121;51.418;6.998;2022-10-16T01:55:48;1.00;;;0.73;;
16033;SDS011;8121;51.418;6.998;2022-10-16T02:05:51;1.00;;;0.90;;
16033;SDS011;8121;51.418;6.998;2022-10-16T02:15:56;0.97;;;0.83;;
16033;SDS011;8121;51.418;6.998;2022-10-16T02:25:58;0.70;;;0.60;;
16033;SDS011;8121;51.418;6.998;2022-10-16T02:36:01;1.03;;;0.90;;
16033;SDS011;8121;51.418;6.998;2022-10-16T02:46:09;1.00;;;0.77;;
16033;SDS011;8121;51.418;6.998;2022-10-16T02:56:12;2.50;;;0.70;;
16033;SDS011;8121;51.418;6.998;2022-10-16T03:06:14;1.17;;;0.70;;
16033;SDS011;8121;51.418;6.998;2022-10-16T03:16:16;0.70;;;0.70;;
16033;SDS011;8121;51.418;6.998;2022-10-16T03:26:18;1.13;;;0.77;;
16033;SDS011;8121;51.418;6.998;2022-10-16T03:36:21;1.00;;;0.70;;
16033;SDS011;8121;51.418;6.998;2022-10-16T03:46:22;2.10;;;0.70;;
16033;SDS011;8121;51.418;6.998;2022-10-16T03:56:25;0.70;;;0.70;;
16033;SDS011;8121;51.418;6.998;2022-10-16T04:06:27;0.70;;;0.63;;
16033;SDS011;8121;51.418;6.998;2022-10-16T04:16:30;1.93;;;0.83;;
16033;SDS011;8121;51.418;6.998;2022-10-16T04:26:31;1.00;;;0.80;;
16033;SDS011;8121;51.418;6.998;2022-10-16T04:36:34;3.23;;;0.70;;
16033;SDS011;8121;51.418;6.998;2022-10-16T04:46:35;1.43;;;0.80;;
16033;SDS011;8121;51.418;6.998;2022-10-16T04:56:38;1.23;;;0.70;;
16033;SDS011;8121;51.418;6.998;2022-10-16T05:06:47;0.87;;;0.60;;
16033;SDS011;8121;51.418;6.998;2022-10-16T05:16:50;1.93;;;0.70;;
16033;SDS011;8121;51.418;6.998;2022-10-16T05:26:52;0.80;;;0.80;;
16033;SDS011;8121;51.418;6.998;2022-10-16T05:36:55;0.70;;;0.63;;
16033;SDS011;8121;51.418;6.998;2022-10-16T05:46:56;0.90;;;0.90;;
16033;SDS011;8121;51.418;6.998;2022-10-16T05:56:59;0.80;;;0.80;;
16033;SDS011;8121;51.418;6.998;2022-10-16T06:07:02;3.80;;;0.70;;
16033;SDS011;8121;51.418;6.998;2022-10-16T06:17:05;1.70;;;1.10;;
16033;SDS011;8121;51.418;6.998;2022-10-16T06:27:06;0.70;;;0.70;;
16033;SDS011;8121;51.418;6.998;2022-10-16T06:37:09;1.80;;;1.20;;
16033;SDS011;8121;51.418;6.998;2022-10-16T06:47:11;0.80;;;0.80;;
16033;SDS011;8121;51.418;6.998;2022-10-16T06:57:13;0.87;;;0.87;;
16033;SDS011;8121;51.418;6.998;2022-10-16T07:07:15;0.80;;;0.63;;
16033;SDS011;8121;51.418;6.998;2022-10-16T07:17:18;0.77;;;0.70;;
16033;SDS011;8121;51.418;6.998;2022-10-16T07:27:19;0.80;;;0.70;;
16033;SDS011;8121;51.418;6.998;2022-10-16T07:37:27;1.00;;;0.80;;
16033;SDS011;8121;51.418;6.998;2022-10-16T07:47:31;0.70;;;0.67;;
16033;SDS011;8121;51.418;6.998;2022-10-16T07:57:35;0.70;;;0.70;;
16033;SDS011;8121;51.418;6.998;2022-10-16T08:07:37;0.67;;;0.67;;
16033;SDS011;8121;51.418;6.998;2022-10-16T08:17:40;3.33;;;1.20;;
16033;SDS011;8121;51.418;6.998;2022-10-16T08:27:42;0.60;;;0.60;;
16033;SDS011;8121;51.418;6.998;2022-10-16T08:37:46;1.03;;;0.93;;
16033;SDS011;8121;51.418;6.998;2022-10-16T08:47:49;6.70;;;1.00;;
16033;SDS011;8121;51.418;6.998;2022-10-16T08:57:55;1.63;;;0.90;;
16033;SDS011;8121;51.418;6.998;2022-10-16T09:08:00;7.53;;;0.83;;
16033;SDS011;8121;51.418;6.998;2022-10-16T09:18:07;3.80;;;0.90;;
16033;SDS011;8121;51.418;6.998;2022-10-16T09:28:13;2.40;;;1.00;;
16033;SDS011;8121;51.418;6.998;2022-10-16T09:48:43;1.30;;;0.90;;
16033;SDS011;8121;51.418;6.998;2022-10-16T09:58:50;2.63;;;0.80;;
16033;SDS011;8121;51.418;6.998;2022-10-16T10:08:54;3.70;;;0.73;;
16033;SDS011;8121;51.418;6.998;2022-10-16T10:19:00;1.00;;;0.53;;
16033;SDS011;8121;51.418;6.998;2022-10-16T10:29:02;0.60;;;0.50;;
16033;SDS011;8121;51.418;6.998;2022-10-16T10:39:11;6.83;;;0.70;;
16033;SDS011;8121;51.418;6.998;2022-10-16T10:49:20;3.03;;;0.60;;
16033;SDS011;8121;51.418;6.998;2022-10-16T10:59:46;1.83;;;1.00;;
16033;SDS011;8121;51.418;6.998;2022-10-16T11:09:53;2.40;;;0.80;;
16033;SDS011;8121;51.418;6.998;2022-10-16T11:20:00;2.50;;;0.60;;
16033;SDS011;8121;51.418;6.998;2022-10-16T11:30:08;2.40;;;0.60;;
16033;SDS011;8121;51.418;6.998;2022-10-16T11:40:19;0.67;;;0.50;;
16033;SDS011;8121;51.418;6.998;2022-10-16T11:50:25;0.70;;;0.50;;
16033;SDS011;8121;51.418;6.998;2022-10-16T12:00:33;0.73;;;0.60;;
16033;SDS011;8121;51.418;6.998;2022-10-16T12:10:39;1.43;;;0.53;;
16033;SDS011;8121;51.418;6.998;2022-10-16T12:20:43;1.20;;;0.60;;
16033;SDS011;8121;51.418;6.998;2022-10-16T12:30:59;1.93;;;1.00;;
16033;SDS011;8121;51.418;6.998;2022-10-16T12:41:04;1.47;;;0.50;;
16033;SDS011;8121;51.418;6.998;2022-10-16T12:51:20;1.17;;;0.77;;
16033;SDS011;8121;51.418;6.998;2022-10-16T13:01:32;0.90;;;0.40;;
16033;SDS011;8121;51.418;6.998;2022-10-16T13:11:51;2.43;;;0.50;;
16033;SDS011;8121;51.418;6.998;2022-10-16T13:22:03;0.80;;;0.70;;
16033;SDS011;8121;51.418;6.998;2022-10-16T13:32:07;2.83;;;0.70;;
16033;SDS011;8121;51.418;6.998;2022-10-16T13:42:14;0.70;;;0.60;;
16033;SDS011;8121;51.418;6.998;2022-10-16T13:52:18;0.77;;;0.50;;
16033;SDS011;8121;51.418;6.998;2022-10-16T14:02:25;1.43;;;0.70;;
16033;SDS011;8121;51.418;6.998;2022-10-16T14:12:27;2.23;;;0.60;;
16033;SDS011;8121;51.418;6.998;2022-10-16T14:22:32;0.67;;;0.50;;
16033;SDS011;8121;51.418;6.998;2022-10-16T14:32:35;0.70;;;0.53;;
16033;SDS011;8121;51.418;6.998;2022-10-16T14:42:38;0.60;;;0.50;;
16033;SDS011;8121;51.418;6.998;2022-10-16T14:52:43;2.30;;;0.60;;
16033;SDS011;8121;51.418;6.998;2022-10-16T15:02:47;0.70;;;0.50;;
16033;SDS011;8121;51.418;6.998;2022-10-16T15:12:49;0.70;;;0.50;;
16033;SDS011;8121;51.418;6.998;2022-10-16T15:22:52;1.57;;;1.47;;
16033;SDS011;8121;51.418;6.998;2022-10-16T15:32:54;0.77;;;0.40;;
16033;SDS011;8121;51.418;6.998;2022-10-16T15:42:58;0.70;;;0.50;;
16033;SDS011;8121;51.418;6.998;2022-10-16T15:53:00;1.17;;;0.60;;
16033;SDS011;8121;51.418;6.998;2022-10-16T16:03:03;0.70;;;0.50;;
16033;SDS011;8121;51.418;6.998;2022-10-16T16:13:05;0.70;;;0.70;;
16033;SDS011;8121;51.418;6.998;2022-10-16T16:23:08;2.50;;;0.50;;
16033;SDS011;8121;51.418;6.998;2022-10-16T16:33:10;1.37;;;0.73;;
16033;SDS011;8121;51.418;6.998;2022-10-16T16:43:13;0.90;;;0.63;;
16033;SDS011;8121;51.418;6.998;2022-10-16T16:53:15;0.80;;;0.70;;
16033;SDS011;8121;51.418;6.998;2022-10-16T17:03:18;0.90;;;0.70;;
16033;SDS011;8121;51.418;6.998;2022-10-16T17:13:19;0.93;;;0.83;;
16033;SDS011;8121;51.418;6.998;2022-10-16T17:23:23;1.10;;;0.83;;
16033;SDS011;8121;51.418;6.998;2022-10-16T17:33:24;3.00;;;1.10;;
16033;SDS011;8121;51.418;6.998;2022-10-16T17:43:27;2.10;;;1.20;;
16033;SDS011;8121;51.418;6.998;2022-10-16T17:53:28;3.90;;;1.47;;
16033;SDS011;8121;51.418;6.998;2022-10-16T18:03:32;11.10;;;1.60;;
16033;SDS011;8121;51.418;6.998;2022-10-16T18:13:33;1.77;;;1.17;;
16033;SDS011;8121;51.418;6.998;2022-10-16T18:23:36;1.17;;;1.07;;
16033;SDS011;8121;51.418;6.998;2022-10-16T18:33:39;1.20;;;1.10;;
16033;SDS011;8121;51.418;6.998;2022-10-16T18:43:48;1.00;;;0.80;;
16033;SDS011;8121;51.418;6.998;2022-10-16T18:53:50;1.20;;;1.00;;
16033;SDS011;8121;51.418;6.998;2022-10-16T19:03:55;1.00;;;1.00;;
16033;SDS011;8121;51.418;6.998;2022-10-16T19:13:58;2.60;;;1.20;;
16033;SDS011;8121;51.418;6.998;2022-10-16T19:24:01;4.20;;;1.00;;
16033;SDS011;8121;51.418;6.998;2022-10-16T19:34:03;0.70;;;0.70;;
16033;SDS011;8121;51.418;6.998;2022-10-16T19:44:08;0.70;;;0.53;;
16033;SDS011;8121;51.418;6.998;2022-10-16T19:54:12;1.00;;;0.70;;
16033;SDS011;8121;51.418;6.998;2022-10-16T20:04:15;2.40;;;1.63;;
16033;SDS011;8121;51.418;6.998;2022-10-16T20:14:17;0.70;;;0.60;;
16033;SDS011;8121;51.418;6.998;2022-10-16T20:24:20;1.23;;;0.70;;
16033;SDS011;8121;51.418;6.998;2022-10-16T20:34:22;2.50;;;0.77;;
16033;SDS011;8121;51.418;6.998;2022-10-16T20:44:25;2.00;;;1.23;;
16033;SDS011;8121;51.418;6.998;2022-10-16T20:54:27;3.33;;;1.17;;
16033;SDS011;8121;51.418;6.998;2022-10-16T21:04:30;1.33;;;1.23;;
16033;SDS011;8121;51.418;6.998;2022-10-16T21:14:31;1.33;;;0.90;;
16033;SDS011;8121;51.418;6.998;2022-10-16T21:24:34;1.27;;;0.90;;
16033;SDS011;8121;51.418;6.998;2022-10-16T21:34:36;1.50;;;1.40;;
16033;SDS011;8121;51.418;6.998;2022-10-16T21:44:39;2.80;;;1.07;;
16033;SDS011;8121;51.418;6.998;2022-10-16T21:54:41;0.97;;;0.97;;
16033;SDS011;8121;51.418;6.998;2022-10-16T22:04:44;2.93;;;1.53;;
16033;SDS011;8121;51.418;6.998;2022-10-16T22:14:45;1.80;;;1.70;;
16033;SDS011;8121;51.418;6.998;2022-10-16T22:24:48;2.30;;;0.87;;
16033;SDS011;8121;51.418;6.998;2022-10-16T22:34:50;1.70;;;1.60;;
16033;SDS011;8121;51.418;6.998;2022-10-16T22:44:53;1.53;;;1.43;;
16033;SDS011;8121;51.418;6.998;2022-10-16T22:54:54;1.50;;;1.40;;
16033;SDS011;8121;51.418;6.998;2022-10-16T23:04:57;2.67;;;2.47;;
16033;SDS011;8121;51.418;6.998;2022-10-16T23:14:59;2.03;;;1.93;;
16033;SDS011;8121;51.418;6.998;2022-10-16T23:25:02;1.80;;;1.70;;
16033;SDS011;8121;51.418;6.998;2022-10-16T23:35:04;1.93;;;1.83;;
16033;SDS011;8121;51.418;6.998;2022-10-16T23:45:07;2.70;;;1.97;;
16033;SDS011;8121;51.418;6.998;2022-10-16T23:55:09;1.90;;;1.67;;
